Time;durP1;ratioP1;P1;durP2;ratioP2;P2;SDS_P1;SDS_P2;PMS_P1;PMS_P2;Temp;Humidity;BMP_temperature;BMP_pressure;BME280_temperature;BME280_humidity;BME280_pressure;Samples;Min_cycle;Max_cycle;Signal;HPM_P1;HPM_P2
2022/07/22 00:00:33;;;;;;;1999.90;999.90;;;15.50;99.90;;;;;;5096240;27;20521;-81
2022/07/22 00:02:59;;;;;;;1999.90;999.90;;;15.50;99.90;;;;;;5113167;27;20039;-81
2022/07/22 00:05:25;;;;;;;1999.90;999.90;;;15.40;99.90;;;;;;5098768;27;20548;-81
2022/07/22 00:07:50;;;;;;;1999.90;999.90;;;15.40;99.90;;;;;;5099928;27;20122;-81
2022/07/22 00:10:16;;;;;;;1999.90;999.90;;;15.40;99.90;;;;;;5101828;28;20046;-81
2022/07/22 00:12:41;;;;;;;1999.90;999.90;;;15.40;99.90;;;;;;5108227;27;20032;-82
2022/07/22 00:15:08;;;;;;;1999.90;999.90;;;15.40;99.90;;;;;;5096907;27;20035;-81
2022/07/22 00:17:36;;;;;;;1999.90;999.90;;;15.30;99.90;;;;;;5093447;27;20086;-81
2022/07/22 00:20:03;;;;;;;1999.90;999.90;;;15.30;99.90;;;;;;5089371;27;20455;-81
2022/07/22 00:22:29;;;;;;;1999.90;999.90;;;15.30;99.90;;;;;;5113143;27;20153;-81
2022/07/22 00:24:55;;;;;;;1999.90;999.90;;;15.30;99.90;;;;;;5096652;27;20487;-81
2022/07/22 00:27:20;;;;;;;1999.90;999.90;;;15.30;99.90;;;;;;5107754;27;20046;-81
2022/07/22 00:29:46;;;;;;;1999.90;999.90;;;15.30;99.90;;;;;;5113024;27;20027;-81
2022/07/22 00:32:11;;;;;;;1999.90;999.90;;;15.30;99.90;;;;;;5095213;27;20067;-81
2022/07/22 00:34:37;;;;;;;1999.90;999.90;;;15.30;99.90;;;;;;5100641;27;20053;-81
2022/07/22 00:37:04;;;;;;;1999.90;999.90;;;15.30;99.90;;;;;;5113323;27;20093;-81
2022/07/22 00:39:30;;;;;;;1999.90;999.90;;;15.30;99.90;;;;;;5128136;27;20063;-81
2022/07/22 00:41:56;;;;;;;1999.90;999.90;;;15.30;99.90;;;;;;5103029;27;20061;-81
2022/07/22 00:44:22;;;;;;;1999.90;999.90;;;15.30;99.90;;;;;;5095925;27;20463;-81
2022/07/22 00:46:47;;;;;;;1999.90;999.90;;;15.30;99.90;;;;;;5112843;27;20121;-82
2022/07/22 00:49:13;;;;;;;1999.90;999.90;;;15.30;99.90;;;;;;5103887;28;20036;-81
2022/07/22 00:51:39;;;;;;;1999.90;999.90;;;15.30;99.90;;;;;;5099212;27;20039;-81
2022/07/22 00:54:05;;;;;;;1999.90;999.90;;;15.30;99.90;;;;;;5131211;27;20046;-81
2022/07/22 00:56:31;;;;;;;1999.90;999.90;;;15.30;99.90;;;;;;5103146;28;20047;-81
2022/07/22 00:59:00;;;;;;;1999.90;999.90;;;15.30;99.90;;;;;;5125888;27;20045;-81
2022/07/22 01:01:26;;;;;;;1999.90;999.90;;;15.30;99.90;;;;;;5129220;27;20118;-82
2022/07/22 01:03:52;;;;;;;1999.90;999.90;;;15.30;99.90;;;;;;5127736;27;20139;-81
2022/07/22 01:06:17;;;;;;;1999.90;999.90;;;15.30;99.90;;;;;;5127258;27;20122;-81
2022/07/22 01:08:43;;;;;;;1999.90;999.90;;;15.30;99.90;;;;;;5131055;27;20122;-80
2022/07/22 01:11:15;;;;;;;1999.90;999.90;;;15.30;99.90;;;;;;5095998;27;20118;-81
2022/07/22 01:13:41;;;;;;;1999.90;999.90;;;15.30;99.90;;;;;;5091282;28;20169;-81
2022/07/22 01:16:09;;;;;;;1999.90;999.90;;;15.30;99.90;;;;;;5117438;27;20075;-81
2022/07/22 01:18:36;;;;;;;1999.90;999.90;;;15.30;99.90;;;;;;5130884;27;20070;-81
2022/07/22 01:21:01;;;;;;;1999.90;999.90;;;15.30;99.90;;;;;;5101751;28;20441;-81
2022/07/22 01:23:27;;;;;;;1999.90;999.90;;;15.30;99.90;;;;;;5099118;28;20069;-81
2022/07/22 01:25:53;;;;;;;1999.90;999.90;;;15.30;99.90;;;;;;5109232;27;20135;-81
2022/07/22 01:28:19;;;;;;;1999.90;999.90;;;15.30;99.90;;;;;;5095068;27;20139;-81
2022/07/22 01:30:44;;;;;;;1999.90;999.90;;;15.30;99.90;;;;;;5094762;27;20784;-80
2022/07/22 01:33:10;;;;;;;1999.90;999.90;;;15.30;99.90;;;;;;5109227;27;20038;-81
2022/07/22 01:35:36;;;;;;;1999.90;999.90;;;15.30;99.90;;;;;;5099523;27;20104;-81
2022/07/22 01:38:02;;;;;;;1999.90;999.90;;;15.30;99.90;;;;;;5118745;27;20039;-80
2022/07/22 01:40:28;;;;;;;1999.90;999.90;;;15.30;99.90;;;;;;5103837;27;20121;-81
2022/07/22 01:42:54;;;;;;;1999.90;999.90;;;15.30;99.90;;;;;;5094421;27;20125;-81
2022/07/22 01:45:19;;;;;;;1999.90;999.90;;;15.20;99.90;;;;;;5111808;27;20130;-81
2022/07/22 01:47:45;;;;;;;1999.90;999.90;;;15.30;99.90;;;;;;5105786;27;20412;-80
2022/07/22 01:50:11;;;;;;;1999.90;999.90;;;15.20;99.90;;;;;;5101774;27;20042;-80
2022/07/22 01:52:38;;;;;;;1999.90;999.90;;;15.20;99.90;;;;;;5099731;27;20122;-80
2022/07/22 01:55:06;;;;;;;1999.90;999.90;;;15.20;99.90;;;;;;5085234;28;20394;-80
2022/07/22 01:57:32;;;;;;;1999.90;999.90;;;15.20;99.90;;;;;;5094556;28;20035;-80
2022/07/22 01:59:57;;;;;;;1999.90;999.90;;;15.20;99.90;;;;;;5097238;28;20044;-80
2022/07/22 02:02:23;;;;;;;1999.90;999.90;;;15.20;99.90;;;;;;5119872;27;20040;-81
2022/07/22 02:04:49;;;;;;;1999.90;999.90;;;15.20;99.90;;;;;;5093342;27;20043;-80
2022/07/22 02:07:14;;;;;;;1999.90;999.90;;;15.20;99.90;;;;;;5111751;27;20043;-80
2022/07/22 02:09:40;;;;;;;1999.90;999.90;;;15.20;99.90;;;;;;5109049;27;20509;-80
2022/07/22 02:12:06;;;;;;;1999.90;999.90;;;15.20;99.90;;;;;;5110760;27;20459;-80
2022/07/22 02:14:32;;;;;;;1999.90;999.90;;;15.20;99.90;;;;;;5096887;27;20050;-80
2022/07/22 02:16:57;;;;;;;1999.90;999.90;;;15.20;99.90;;;;;;5130351;27;20047;-80
2022/07/22 02:19:23;;;;;;;1999.90;999.90;;;15.20;99.90;;;;;;5128529;27;20467;-80
2022/07/22 02:21:49;;;;;;;1999.90;999.90;;;15.20;99.90;;;;;;5111660;27;20039;-80
2022/07/22 02:24:14;;;;;;;1999.90;999.90;;;15.20;99.90;;;;;;5130255;27;20485;-80
2022/07/22 02:26:40;;;;;;;1999.90;999.90;;;15.20;99.90;;;;;;5099652;27;20042;-80
2022/07/22 02:29:05;;;;;;;1999.90;999.90;;;15.20;99.90;;;;;;5110506;27;20050;-80
2022/07/22 02:31:31;;;;;;;1999.90;999.90;;;15.20;99.90;;;;;;5106111;27;20114;-80
2022/07/22 02:33:57;;;;;;;1999.90;999.90;;;15.20;99.90;;;;;;5110789;27;20042;-80
2022/07/22 02:36:22;;;;;;;1999.90;999.90;;;15.20;99.90;;;;;;5096726;28;20050;-79
2022/07/22 02:38:48;;;;;;;1999.90;999.90;;;15.20;99.90;;;;;;5108192;28;20048;-80
2022/07/22 02:41:14;;;;;;;1999.90;999.90;;;15.20;99.90;;;;;;5119931;27;20039;-80
2022/07/22 02:43:40;;;;;;;1999.90;999.90;;;15.10;99.90;;;;;;5093910;27;20035;-80
2022/07/22 02:46:05;;;;;;;1999.90;999.90;;;15.20;99.90;;;;;;5106195;28;20062;-79
2022/07/22 02:48:31;;;;;;;1999.90;999.90;;;15.20;99.90;;;;;;5109647;28;20144;-80
2022/07/22 02:50:57;;;;;;;1999.90;999.90;;;15.10;99.90;;;;;;5110969;28;20052;-80
2022/07/22 02:53:22;;;;;;;1999.90;999.90;;;15.10;99.90;;;;;;5129956;28;20039;-79
2022/07/22 02:55:48;;;;;;;1999.90;999.90;;;15.10;99.90;;;;;;5125611;28;20070;-79
2022/07/22 02:58:13;;;;;;;1999.90;999.90;;;15.10;99.90;;;;;;5129709;28;20126;-79
2022/07/22 03:00:39;;;;;;;1999.90;999.90;;;15.10;99.90;;;;;;5106023;28;20467;-79
2022/07/22 03:03:05;;;;;;;1999.90;999.90;;;15.10;99.90;;;;;;5099434;28;20426;-80
2022/07/22 03:05:30;;;;;;;1999.90;999.90;;;15.10;99.90;;;;;;5091826;28;20564;-79
2022/07/22 03:07:56;;;;;;;1999.90;999.90;;;15.10;99.90;;;;;;5121077;27;20050;-79
2022/07/22 03:10:22;;;;;;;1999.90;999.90;;;15.10;99.90;;;;;;5131652;27;20471;-80
2022/07/22 03:12:48;;;;;;;1999.90;999.90;;;15.10;99.90;;;;;;5133680;27;20050;-79
2022/07/22 03:15:13;;;;;;;1999.90;999.90;;;15.10;99.90;;;;;;5092526;27;20039;-79
2022/07/22 03:17:39;;;;;;;1999.90;999.90;;;15.10;99.90;;;;;;5099307;27;20078;-79
2022/07/22 03:20:06;;;;;;;1999.90;999.90;;;15.10;99.90;;;;;;5115638;27;20487;-79
2022/07/22 03:22:32;;;;;;;1999.90;999.90;;;15.10;99.90;;;;;;5109231;27;20043;-79
2022/07/22 03:24:58;;;;;;;1999.90;999.90;;;15.10;99.90;;;;;;5088561;27;20126;-79
2022/07/22 03:27:24;;;;;;;1999.90;999.90;;;15.10;99.90;;;;;;5123653;27;20525;-80
2022/07/22 03:29:50;;;;;;;1999.90;999.90;;;15.10;99.90;;;;;;5119324;27;20043;-79
2022/07/22 03:32:16;;;;;;;1999.90;999.90;;;15.10;99.90;;;;;;5133722;27;20082;-79
2022/07/22 03:34:41;;;;;;;1999.90;999.90;;;15.10;99.90;;;;;;5099839;27;20047;-79
2022/07/22 03:37:07;;;;;;;1999.90;999.90;;;15.10;99.90;;;;;;5123283;27;20114;-79
2022/07/22 03:39:33;;;;;;;1999.90;999.90;;;15.10;99.90;;;;;;5110571;27;20061;-79
2022/07/22 03:41:59;;;;;;;1999.90;999.90;;;15.10;99.90;;;;;;5080127;27;20046;-79
2022/07/22 03:44:24;;;;;;;1999.90;999.90;;;15.10;99.90;;;;;;5124712;27;20047;-79
2022/07/22 03:46:50;;;;;;;1999.90;999.90;;;15.10;99.90;;;;;;5131938;27;20045;-79
2022/07/22 03:49:15;;;;;;;1999.90;999.90;;;15.10;99.90;;;;;;5083443;27;20459;-79
2022/07/22 03:51:41;;;;;;;1999.90;999.90;;;15.10;99.90;;;;;;5113885;27;20039;-79
2022/07/22 03:54:07;;;;;;;1999.90;999.90;;;15.10;99.90;;;;;;5105225;27;20048;-79
2022/07/22 03:56:33;;;;;;;1999.90;999.90;;;15.10;99.90;;;;;;5132873;27;20039;-79
2022/07/22 03:58:59;;;;;;;1999.90;999.90;;;15.10;99.90;;;;;;5095923;27;20050;-79
2022/07/22 04:01:24;;;;;;;1999.90;999.90;;;15.10;99.90;;;;;;5111811;27;20050;-79
2022/07/22 04:03:50;;;;;;;1999.90;999.90;;;15.10;99.90;;;;;;5132292;27;20039;-79
2022/07/22 04:06:16;;;;;;;1999.90;999.90;;;15.10;99.90;;;;;;5114088;27;20043;-79
2022/07/22 04:08:42;;;;;;;1999.90;999.90;;;15.20;99.90;;;;;;5096802;27;20126;-79
2022/07/22 04:11:08;;;;;;;1999.90;999.90;;;15.10;99.90;;;;;;5113001;27;20402;-79
2022/07/22 04:13:33;;;;;;;1999.90;999.90;;;15.10;99.90;;;;;;5118031;27;20396;-79
2022/07/22 04:15:59;;;;;;;1999.90;999.90;;;15.10;99.90;;;;;;5113835;27;20104;-79
2022/07/22 04:18:25;;;;;;;1999.90;999.90;;;15.10;99.90;;;;;;5120555;27;20047;-79
2022/07/22 04:20:50;;;;;;;1999.90;999.90;;;15.10;99.90;;;;;;5096920;27;20073;-79
2022/07/22 04:23:16;;;;;;;1999.90;999.90;;;15.20;99.90;;;;;;5124134;27;20039;-79
2022/07/22 04:25:42;;;;;;;1999.90;999.90;;;15.10;99.90;;;;;;5126415;27;20035;-79
2022/07/22 04:28:07;;;;;;;1999.90;999.90;;;15.20;99.90;;;;;;5112163;27;20039;-79
2022/07/22 04:30:33;;;;;;;1999.90;999.90;;;15.20;99.90;;;;;;5132424;27;20085;-79
2022/07/22 04:32:59;;;;;;;1999.90;999.90;;;15.20;99.90;;;;;;5131703;27;20463;-79
2022/07/22 04:35:25;;;;;;;1999.90;999.90;;;15.20;99.90;;;;;;5112110;27;20043;-79
2022/07/22 04:37:50;;;;;;;1999.90;999.90;;;15.20;99.90;;;;;;5113519;27;20122;-79
2022/07/22 04:40:16;;;;;;;1999.90;999.90;;;15.20;99.90;;;;;;5125015;27;20137;-79
2022/07/22 04:42:42;;;;;;;1999.90;999.90;;;15.20;99.90;;;;;;5095457;27;20039;-79
2022/07/22 04:45:08;;;;;;;1999.90;999.90;;;15.20;99.90;;;;;;5113427;27;20035;-79
2022/07/22 04:47:34;;;;;;;1999.90;999.90;;;15.30;99.90;;;;;;5105994;28;20126;-79
2022/07/22 04:50:00;;;;;;;1999.90;999.90;;;15.30;99.90;;;;;;5076218;28;20092;-79
2022/07/22 04:52:25;;;;;;;1999.90;999.90;;;15.30;99.90;;;;;;5094611;27;20043;-79
2022/07/22 04:54:51;;;;;;;1999.90;999.90;;;15.30;99.90;;;;;;5125232;27;20050;-79
2022/07/22 04:57:17;;;;;;;1999.90;999.90;;;15.30;99.90;;;;;;5128069;27;20042;-79
2022/07/22 04:59:42;;;;;;;1999.90;999.90;;;15.30;99.90;;;;;;5129324;27;20046;-79
2022/07/22 05:02:08;;;;;;;1999.90;999.90;;;15.30;99.90;;;;;;5126889;27;20075;-79
2022/07/22 05:04:34;;;;;;;1999.90;999.90;;;15.40;99.90;;;;;;5131071;27;20036;-79
2022/07/22 05:07:00;;;;;;;1999.90;999.90;;;15.40;99.90;;;;;;5094637;27;20043;-79
2022/07/22 05:09:25;;;;;;;1999.90;999.90;;;15.40;99.90;;;;;;5110796;27;20127;-79
2022/07/22 05:11:51;;;;;;;1999.90;999.90;;;15.40;99.90;;;;;;5103367;27;20027;-79
2022/07/22 05:14:17;;;;;;;1999.90;999.90;;;15.50;99.90;;;;;;5096077;27;20508;-79
2022/07/22 05:16:42;;;;;;;1999.90;999.90;;;15.50;99.90;;;;;;5112692;27;20104;-79
2022/07/22 05:19:08;;;;;;;1999.90;999.90;;;15.50;99.90;;;;;;5092485;27;20463;-79
2022/07/22 05:21:34;;;;;;;1999.90;999.90;;;15.60;99.90;;;;;;5128210;27;20034;-79
2022/07/22 05:24:00;;;;;;;1999.90;999.90;;;15.60;99.90;;;;;;5089577;27;20085;-79
2022/07/22 05:26:28;;;;;;;1999.90;999.90;;;15.70;99.90;;;;;;5082040;27;20070;-80
2022/07/22 05:28:54;;;;;;;1999.90;999.90;;;15.70;99.90;;;;;;5091205;27;20039;-79
2022/07/22 05:31:19;;;;;;;1999.90;999.90;;;15.80;99.90;;;;;;5109771;27;20031;-79
2022/07/22 05:33:45;;;;;;;1999.90;999.90;;;15.80;99.90;;;;;;5128506;27;20031;-79
2022/07/22 05:36:11;;;;;;;1999.90;999.90;;;15.80;99.90;;;;;;5105050;27;20092;-79
2022/07/22 05:38:37;;;;;;;1999.90;999.90;;;15.90;99.90;;;;;;5109484;27;20047;-79
2022/07/22 05:41:02;;;;;;;1999.90;999.90;;;15.90;99.90;;;;;;5120274;27;20039;-79
2022/07/22 05:43:28;;;;;;;1999.90;999.90;;;16.00;99.90;;;;;;5101649;27;20115;-79
2022/07/22 05:45:54;;;;;;;1999.90;999.90;;;16.00;99.90;;;;;;5097551;27;20087;-79
2022/07/22 05:48:20;;;;;;;1999.90;999.90;;;16.00;99.90;;;;;;5089217;27;20031;-79
2022/07/22 05:50:46;;;;;;;1999.90;999.90;;;16.10;99.90;;;;;;5124436;27;20587;-79
2022/07/22 05:53:11;;;;;;;1999.90;999.90;;;16.10;99.90;;;;;;5127646;27;20039;-79
2022/07/22 05:55:37;;;;;;;1999.90;999.90;;;16.10;99.90;;;;;;5111191;27;20599;-79
2022/07/22 05:58:03;;;;;;;1999.90;999.90;;;16.10;99.90;;;;;;5110540;27;20490;-79
2022/07/22 06:00:28;;;;;;;1999.90;999.90;;;16.20;99.90;;;;;;5111524;27;20533;-79
2022/07/22 06:02:54;;;;;;;1999.90;999.90;;;16.20;99.90;;;;;;5111638;27;20118;-79
2022/07/22 06:05:20;;;;;;;1999.90;999.90;;;16.20;99.90;;;;;;5113589;27;20043;-79
2022/07/22 06:07:46;;;;;;;1999.90;999.90;;;16.20;99.90;;;;;;5110099;27;20093;-79
2022/07/22 06:10:11;;;;;;;1999.90;999.90;;;16.30;99.90;;;;;;5110264;27;20035;-79
2022/07/22 06:12:37;;;;;;;1999.90;999.90;;;16.30;99.90;;;;;;5094427;27;20034;-80
2022/07/22 06:15:04;;;;;;;1999.90;999.90;;;16.40;99.90;;;;;;5100447;28;20051;-79
2022/07/22 06:17:30;;;;;;;1999.90;999.90;;;16.40;99.90;;;;;;5096980;27;20074;-79
2022/07/22 06:19:55;;;;;;;1999.90;999.90;;;16.50;99.90;;;;;;5109375;27;20522;-79
2022/07/22 06:22:21;;;;;;;1999.90;999.90;;;16.60;99.90;;;;;;5111452;27;20038;-79
2022/07/22 06:24:47;;;;;;;1999.90;999.90;;;16.60;99.90;;;;;;5110754;27;20602;-78
2022/07/22 06:27:12;;;;;;;1999.90;999.90;;;16.70;99.90;;;;;;5111351;27;20050;-79
2022/07/22 06:29:40;;;;;;;1999.90;999.90;;;16.70;99.90;;;;;;5105513;27;20403;-79
2022/07/22 06:32:14;;;;;;;1999.90;999.90;;;16.70;99.90;;;;;;5111370;27;20128;-80
2022/07/22 06:34:40;;;;;;;1999.90;999.90;;;16.80;99.90;;;;;;5092801;27;20042;-79
2022/07/22 06:37:06;;;;;;;1999.90;999.90;;;16.80;99.90;;;;;;5094053;28;20039;-79
2022/07/22 06:39:31;;;;;;;1999.90;999.90;;;16.80;99.90;;;;;;5092618;28;20057;-79
2022/07/22 06:41:57;;;;;;;1999.90;999.90;;;16.80;99.90;;;;;;5102536;28;20136;-79
2022/07/22 06:44:23;;;;;;;1999.90;999.90;;;16.80;99.90;;;;;;5090466;28;20035;-79
2022/07/22 06:46:49;;;;;;;1999.90;999.90;;;16.80;99.90;;;;;;5129876;27;20054;-79
2022/07/22 06:49:14;;;;;;;1999.90;999.90;;;16.90;99.90;;;;;;5123368;28;20043;-80
2022/07/22 06:51:40;;;;;;;1999.90;999.90;;;16.90;99.90;;;;;;5108712;28;20039;-79
2022/07/22 06:54:06;;;;;;;1999.90;999.90;;;16.90;99.90;;;;;;5094239;28;20046;-79
2022/07/22 06:56:34;;;;;;;1999.90;999.90;;;17.00;99.90;;;;;;5120523;28;20126;-79
2022/07/22 06:59:00;;;;;;;1999.90;999.90;;;17.10;99.90;;;;;;5116115;28;20122;-79
2022/07/22 07:01:26;;;;;;;1999.90;999.90;;;17.20;99.90;;;;;;5129322;28;20463;-79
2022/07/22 07:03:51;;;;;;;1999.90;999.90;;;17.30;99.90;;;;;;5110636;28;20039;-79
2022/07/22 07:06:17;;;;;;;1999.90;999.90;;;17.40;99.90;;;;;;5111195;28;20112;-79
2022/07/22 07:08:43;;;;;;;1999.90;999.90;;;17.50;99.90;;;;;;5127916;28;20031;-79
2022/07/22 07:11:08;;;;;;;1999.90;999.90;;;17.60;99.90;;;;;;5111087;28;20039;-79
2022/07/22 07:13:34;;;;;;;1999.90;999.90;;;17.70;99.90;;;;;;5129317;28;20063;-79
2022/07/22 07:16:00;;;;;;;1999.90;999.90;;;17.80;99.90;;;;;;5111021;28;20103;-79
2022/07/22 07:18:25;;;;;;;1999.90;999.90;;;17.80;99.90;;;;;;5104698;28;20046;-79
2022/07/22 07:20:51;;;;;;;1999.90;999.90;;;17.80;99.90;;;;;;5089510;28;20557;-79
2022/07/22 07:23:17;;;;;;;1999.90;999.90;;;17.70;99.90;;;;;;5094055;28;20072;-79
2022/07/22 07:25:42;;;;;;;1999.90;999.90;;;17.70;99.90;;;;;;5128933;28;20035;-79
2022/07/22 07:28:08;;;;;;;1999.90;999.90;;;17.70;99.90;;;;;;5110948;28;20043;-79
2022/07/22 07:30:34;;;;;;;1999.90;999.90;;;17.70;99.90;;;;;;5101536;28;20529;-79
2022/07/22 07:33:00;;;;;;;1999.90;999.90;;;17.70;99.90;;;;;;5110958;28;20093;-79
2022/07/22 07:35:26;;;;;;;1999.90;999.90;;;17.70;99.90;;;;;;5122907;28;20481;-79
2022/07/22 07:37:53;;;;;;;1999.90;999.90;;;17.70;99.90;;;;;;5108562;28;20047;-79
2022/07/22 07:40:19;;;;;;;1999.90;999.90;;;17.80;99.90;;;;;;5084646;28;20084;-79
2022/07/22 07:42:45;;;;;;;1999.90;999.90;;;17.80;99.90;;;;;;5127068;28;20514;-79
2022/07/22 07:45:11;;;;;;;1999.90;999.90;;;17.80;99.90;;;;;;5104728;28;20043;-79
2022/07/22 07:47:36;;;;;;;1999.90;999.90;;;17.80;99.90;;;;;;5104638;28;20406;-79
2022/07/22 07:50:05;;;;;;;1999.90;999.90;;;17.80;99.90;;;;;;5101374;28;20043;-79
2022/07/22 07:52:30;;;;;;;1999.90;999.90;;;17.70;99.90;;;;;;5106998;28;20144;-79
2022/07/22 07:54:56;;;;;;;1999.90;999.90;;;17.70;99.90;;;;;;5106413;27;20726;-79
2022/07/22 07:57:22;;;;;;;1999.90;999.90;;;17.70;99.90;;;;;;5097188;27;20126;-79
2022/07/22 07:59:48;;;;;;;1999.90;999.90;;;17.70;99.90;;;;;;5096533;27;20062;-79
2022/07/22 08:02:14;;;;;;;1999.90;999.90;;;17.70;99.90;;;;;;5137275;27;20099;-78
2022/07/22 08:04:39;;;;;;;1999.90;999.90;;;17.70;99.90;;;;;;5110337;27;20572;-79
2022/07/22 08:07:06;;;;;;;1999.90;999.90;;;17.70;99.90;;;;;;5114627;27;20035;-79
2022/07/22 08:09:35;;;;;;;1999.90;999.90;;;17.70;99.90;;;;;;5132607;27;20038;-78
2022/07/22 08:12:00;;;;;;;1999.90;999.90;;;17.80;99.90;;;;;;5093846;27;20039;-79
2022/07/22 08:14:26;;;;;;;1999.90;999.90;;;17.90;99.90;;;;;;5121555;27;20083;-79
2022/07/22 08:16:52;;;;;;;1999.90;999.90;;;18.00;99.90;;;;;;5094657;27;20071;-79
2022/07/22 08:19:17;;;;;;;1999.90;999.90;;;18.20;99.90;;;;;;5125742;27;20524;-79
2022/07/22 08:21:43;;;;;;;1999.90;999.90;;;18.30;99.90;;;;;;5131266;27;20046;-79
2022/07/22 08:24:09;;;;;;;1999.90;999.90;;;18.40;99.90;;;;;;5127515;27;20031;-79
2022/07/22 08:26:36;;;;;;;1999.90;999.90;;;18.40;99.90;;;;;;5124200;27;20511;-79
2022/07/22 08:29:03;;;;;;;1999.90;999.90;;;18.40;99.90;;;;;;5111866;27;20035;-79
2022/07/22 08:31:28;;;;;;;1999.90;999.90;;;18.50;99.90;;;;;;5113630;27;20213;-79
2022/07/22 08:33:54;;;;;;;1999.90;999.90;;;18.40;99.90;;;;;;5111143;27;20046;-79
2022/07/22 08:36:20;;;;;;;1999.90;999.90;;;18.40;99.90;;;;;;5138122;27;20095;-79
2022/07/22 08:38:45;;;;;;;1999.90;999.90;;;18.40;99.90;;;;;;5111865;27;20184;-78
2022/07/22 08:41:14;;;;;;;1999.90;999.90;;;18.30;99.90;;;;;;5109075;27;20035;-79
2022/07/22 08:43:42;;;;;;;1999.90;999.90;;;18.20;99.90;;;;;;5097537;27;20077;-79
2022/07/22 08:46:08;;;;;;;1999.90;999.90;;;18.20;99.90;;;;;;5086706;27;20079;-79
2022/07/22 08:48:37;;;;;;;1999.90;999.90;;;18.20;99.90;;;;;;5104986;28;20035;-79
2022/07/22 08:51:02;;;;;;;1999.90;999.90;;;18.20;99.90;;;;;;5105689;27;20099;-79
2022/07/22 08:53:28;;;;;;;1999.90;999.90;;;18.20;99.90;;;;;;5096368;27;20043;-79
2022/07/22 08:55:54;;;;;;;1999.90;999.90;;;18.30;99.90;;;;;;5108112;27;20055;-79
2022/07/22 08:58:19;;;;;;;1999.90;999.90;;;18.20;99.90;;;;;;5121174;27;20480;-79
2022/07/22 09:00:45;;;;;;;1999.90;999.90;;;18.20;99.90;;;;;;5121548;27;20676;-78
2022/07/22 09:03:27;;;;;;;1999.90;999.90;;;18.20;99.90;;;;;;5093333;27;20042;-78
2022/07/22 09:05:54;;;;;;;1999.90;999.90;;;18.20;99.90;;;;;;5125081;27;20048;-79
2022/07/22 09:08:21;;;;;;;1999.90;999.90;;;18.20;99.90;;;;;;5083448;28;20068;-79
2022/07/22 09:10:48;;;;;;;1999.90;999.90;;;18.20;99.90;;;;;;5123279;27;20039;-79
2022/07/22 09:13:15;;;;;;;1999.90;999.90;;;18.20;99.90;;;;;;5124560;27;20055;-79
2022/07/22 09:15:53;;;;;;;1999.90;999.90;;;18.20;99.90;;;;;;5130869;27;20043;-79
2022/07/22 09:18:19;;;;;;;1999.90;999.90;;;18.20;99.90;;;;;;5127952;27;20050;-79
2022/07/22 09:20:44;;;;;;;1999.90;999.90;;;18.30;99.90;;;;;;5111619;27;20487;-79
2022/07/22 09:23:13;;;;;;;1999.90;999.90;;;18.40;99.90;;;;;;5130948;27;20122;-79
2022/07/22 09:25:40;;;;;;;1999.90;999.90;;;18.40;99.90;;;;;;5074599;27;20085;-79
2022/07/22 09:28:05;;;;;;;1999.90;999.90;;;18.50;99.90;;;;;;5084806;27;20080;-78
2022/07/22 09:30:39;;;;;;;1999.90;999.90;;;18.40;99.90;;;;;;5095512;27;20039;-79
2022/07/22 09:33:06;;;;;;;1999.90;999.90;;;18.50;99.90;;;;;;5110036;27;20117;-78
2022/07/22 09:35:32;;;;;;;1999.90;999.90;;;18.40;99.90;;;;;;5100937;27;20046;-79
2022/07/22 09:38:06;;;;;;;1999.90;999.90;;;18.40;99.90;;;;;;5118148;27;20676;-78
2022/07/22 09:40:40;;;;;;;1999.90;999.90;;;18.40;99.90;;;;;;5097479;27;20501;-78
2022/07/22 09:43:12;;;;;;;1999.90;999.90;;;18.40;99.90;;;;;;5120651;27;20080;-79
2022/07/22 09:45:46;;;;;;;1999.90;999.90;;;18.40;99.90;;;;;;5108581;27;20050;-78
2022/07/22 09:48:12;;;;;;;1999.90;999.90;;;18.50;99.90;;;;;;5113268;27;20823;-79
2022/07/22 09:50:38;;;;;;;1999.90;999.90;;;18.50;99.90;;;;;;5083408;27;20110;-78
2022/07/22 09:53:03;;;;;;;1999.90;999.90;;;18.70;99.90;;;;;;5098476;27;20104;-79
2022/07/22 09:55:30;;;;;;;1999.90;999.90;;;18.90;99.90;;;;;;5111657;27;20035;-78
2022/07/22 09:57:57;;;;;;;1999.90;999.90;;;19.10;99.90;;;;;;5095007;27;20508;-78
2022/07/22 10:00:25;;;;;;;1999.90;999.90;;;19.20;99.90;;;;;;5105390;27;20050;-78
2022/07/22 10:02:54;;;;;;;1999.90;999.90;;;19.30;99.90;;;;;;5126943;27;20089;-78
2022/07/22 10:05:23;;;;;;;1999.90;999.90;;;19.40;99.90;;;;;;5109624;27;20405;-79
2022/07/22 10:07:49;;;;;;;1999.90;999.90;;;19.50;99.90;;;;;;5109141;27;20043;-78
2022/07/22 10:10:18;;;;;;;1999.90;999.90;;;19.50;99.90;;;;;;5113835;27;20042;-78
2022/07/22 10:12:47;;;;;;;1999.90;999.90;;;19.60;99.90;;;;;;5130224;27;20049;-78
2022/07/22 10:15:12;;;;;;;1999.90;999.90;;;19.60;99.90;;;;;;5096579;27;20047;-79
2022/07/22 10:17:50;;;;;;;1999.90;999.90;;;19.40;99.90;;;;;;5118675;27;20445;-79
2022/07/22 10:20:22;;;;;;;1999.90;999.90;;;19.30;99.90;;;;;;5094656;27;20444;-78
2022/07/22 10:22:53;;;;;;;1999.90;999.90;;;19.20;99.90;;;;;;5108880;27;20080;-78
2022/07/22 10:25:21;;;;;;;1999.90;999.90;;;19.10;99.90;;;;;;5106714;27;20054;-78
2022/07/22 10:28:02;;;;;;;1999.90;999.90;;;19.00;99.90;;;;;;5105028;27;20039;-78
2022/07/22 10:30:33;;;;;;;1999.90;999.90;;;18.90;99.90;;;;;;5112480;27;20031;-81
2022/07/22 10:33:02;;;;;;;1999.90;999.90;;;18.90;99.90;;;;;;5117770;27;20065;-78
2022/07/22 10:35:28;;;;;;;1999.90;999.90;;;18.90;99.90;;;;;;5117470;27;20043;-77
2022/07/22 10:37:57;;;;;;;1999.90;999.90;;;18.90;99.90;;;;;;5131228;27;20417;-78
2022/07/22 10:40:29;;;;;;;1999.90;999.90;;;18.90;99.90;;;;;;5105432;28;20490;-78
2022/07/22 10:43:00;;;;;;;1999.90;999.90;;;18.90;99.90;;;;;;5101104;28;20044;-78
2022/07/22 10:45:26;;;;;;;1999.90;999.90;;;19.00;99.90;;;;;;5109269;27;20049;-78
2022/07/22 10:47:56;;;;;;;1999.90;999.90;;;19.00;99.90;;;;;;5111230;28;20546;-74
2022/07/22 10:50:37;;;;;;;1999.90;999.90;;;19.20;99.90;;;;;;5094406;28;20031;-79
2022/07/22 10:53:04;;;;;;;1999.90;999.90;;;19.20;99.90;;;;;;5107755;28;20399;-79
2022/07/22 10:55:30;;;;;;;1999.90;999.90;;;19.20;99.90;;;;;;5090880;28;20039;-78
2022/07/22 10:57:56;;;;;;;1999.90;999.90;;;19.20;99.90;;;;;;5086994;28;20058;-78
2022/07/22 11:00:22;;;;;;;1999.90;999.90;;;19.30;99.90;;;;;;5104525;28;21420;-78
2022/07/22 11:02:47;;;;;;;1999.90;999.90;;;19.50;99.90;;;;;;5104721;27;20043;-78
2022/07/22 11:05:23;;;;;;;1999.90;999.90;;;19.60;99.90;;;;;;5104361;27;20507;-78
2022/07/22 11:07:49;;;;;;;1999.90;999.90;;;19.70;99.90;;;;;;5111396;27;20042;-78
2022/07/22 11:10:17;;;;;;;1999.90;999.90;;;19.90;99.90;;;;;;5097379;28;20042;-78
2022/07/22 11:12:44;;;;;;;1999.90;999.90;;;20.10;99.90;;;;;;5116726;27;20035;-78
2022/07/22 11:15:11;;;;;;;1999.90;999.90;;;20.20;99.90;;;;;;5079490;28;20134;-79
2022/07/22 11:17:37;;;;;;;1999.90;999.90;;;20.20;99.90;;;;;;5079708;28;20092;-78
2022/07/22 11:20:06;;;;;;;1999.90;999.90;;;20.30;99.90;;;;;;5080702;28;20043;-78
2022/07/22 11:22:32;;;;;;;1999.90;999.90;;;20.30;99.90;;;;;;5113245;27;20046;-79
2022/07/22 11:25:03;;;;;;;1999.90;999.90;;;20.30;99.90;;;;;;5105282;27;20050;-78
2022/07/22 11:27:29;;;;;;;1999.90;999.90;;;20.30;99.90;;;;;;5088249;28;20032;-78
2022/07/22 11:29:56;;;;;;;1999.90;999.90;;;20.20;99.90;;;;;;5127345;27;20047;-78
2022/07/22 11:32:23;;;;;;;1999.90;999.90;;;20.20;99.90;;;;;;5102789;27;20035;-79
2022/07/22 11:34:49;;;;;;;1999.90;999.90;;;20.20;99.90;;;;;;5113290;27;20050;-78
2022/07/22 11:37:17;;;;;;;1999.90;999.90;;;20.20;99.90;;;;;;5100622;27;20050;-78
2022/07/22 11:39:43;;;;;;;1999.90;999.90;;;20.00;99.90;;;;;;5115816;27;20061;-79
2022/07/22 11:42:09;;;;;;;1999.90;999.90;;;19.90;99.90;;;;;;5121567;27;20047;-78
2022/07/22 11:44:37;;;;;;;1999.90;999.90;;;19.80;99.90;;;;;;5110257;27;20051;-78
2022/07/22 11:47:05;;;;;;;1999.90;999.90;;;19.60;99.90;;;;;;5111652;27;20034;-78
2022/07/22 11:49:33;;;;;;;1999.90;999.90;;;19.60;99.90;;;;;;5102075;27;20031;-78
2022/07/22 11:52:00;;;;;;;1999.90;999.90;;;19.60;99.90;;;;;;5131044;27;20070;-78
2022/07/22 11:54:26;;;;;;;1999.90;999.90;;;19.70;99.90;;;;;;5130938;27;20075;-77